Newport News/Williamsburg International Airport

Airport
ICAO code: 
KPHF
Summary
ICAO Region: 
NAM
Territory: 
Location: 
Newport News, Virginia,
Coordinates: 
Aerial View: 
37° 7' 54.001" N, 76° 29' 34.001" W
Metar
Observation
KPHF 020754Z AUTO 21005KT 10SM CLR 09/04 A3000 RMK AO2 SLP158 T00940044
Station
Newport News, Newport News / Williamsburg International Airport
Date/Time
2021-12-02 07:54:00
Wind direction
210°
Wind speed
05 kts
Lowest cloud amount
n/a
Temperature
9.4°C
Dew point
4.4°C
Humidity
70%
Weather condition
n/a

Description

Newport News/Williamsburg International Airport is a public use international airport located in Newport News, Virginia.

Climatology

Humid “subtropical” climate (Köppen climate classification Cfa) - characterized by hot, humid summers and cool winters. Significant amounts of precipitation occur in all seasons in most areas. Winter rainfall (and sometimes snowfall) is associated with large storms that the westerlies steer from west to east. Most summer rainfall occurs during thunderstorms and occasional tropical storms (hurricanes).

Runways

Designator Length Width Surface Rops
2/20 1989 46 CON Yes/Yes
7/25 2439 46 CON Yes/Yes
Airport map: 
Aerial View: 

SKYbrary Partners:

Safety knowledge contributed by: